sensor_id;sensor_type;location;lat;lon;timestamp;temperature;humidity
22838;DHT22;11585;51.450;-0.240;2023-06-22T00:02:21;22.40;99.90
22838;DHT22;11585;51.450;-0.240;2023-06-22T00:04:46;22.30;99.90
22838;DHT22;11585;51.450;-0.240;2023-06-22T00:07:12;22.40;99.90
22838;DHT22;11585;51.450;-0.240;2023-06-22T00:09:38;22.30;99.90
22838;DHT22;11585;51.450;-0.240;2023-06-22T00:12:05;22.30;99.90
22838;DHT22;11585;51.450;-0.240;2023-06-22T00:14:30;22.30;99.90
22838;DHT22;11585;51.450;-0.240;2023-06-22T00:16:56;22.20;99.90
22838;DHT22;11585;51.450;-0.240;2023-06-22T00:19:24;22.20;99.90
22838;DHT22;11585;51.450;-0.240;2023-06-22T00:21:50;22.20;99.90
22838;DHT22;11585;51.450;-0.240;2023-06-22T00:24:24;22.20;99.90
22838;DHT22;11585;51.450;-0.240;2023-06-22T00:26:50;22.10;99.90
22838;DHT22;11585;51.450;-0.240;2023-06-22T00:29:16;22.10;99.90
22838;DHT22;11585;51.450;-0.240;2023-06-22T00:31:42;22.10;99.90
22838;DHT22;11585;51.450;-0.240;2023-06-22T00:34:09;22.10;99.90
22838;DHT22;11585;51.450;-0.240;2023-06-22T00:36:36;22.10;99.90
22838;DHT22;11585;51.450;-0.240;2023-06-22T00:39:02;22.00;99.90
22838;DHT22;11585;51.450;-0.240;2023-06-22T00:41:27;22.00;99.90
22838;DHT22;11585;51.450;-0.240;2023-06-22T00:44:13;22.00;99.90
22838;DHT22;11585;51.450;-0.240;2023-06-22T00:46:39;22.00;99.90
22838;DHT22;11585;51.450;-0.240;2023-06-22T00:49:05;21.90;99.90
22838;DHT22;11585;51.450;-0.240;2023-06-22T00:51:31;21.90;99.90
22838;DHT22;11585;51.450;-0.240;2023-06-22T00:53:57;21.90;99.90
22838;DHT22;11585;51.450;-0.240;2023-06-22T00:56:24;21.90;99.90
22838;DHT22;11585;51.450;-0.240;2023-06-22T00:58:50;21.90;99.90
22838;DHT22;11585;51.450;-0.240;2023-06-22T01:01:18;21.80;99.90
22838;DHT22;11585;51.450;-0.240;2023-06-22T01:03:50;21.80;99.90
22838;DHT22;11585;51.450;-0.240;2023-06-22T01:06:20;21.80;99.90
22838;DHT22;11585;51.450;-0.240;2023-06-22T01:08:57;21.80;99.90
22838;DHT22;11585;51.450;-0.240;2023-06-22T01:11:31;21.80;99.90
22838;DHT22;11585;51.450;-0.240;2023-06-22T01:14:28;21.80;99.90
22838;DHT22;11585;51.450;-0.240;2023-06-22T01:17:00;21.70;99.90
22838;DHT22;11585;51.450;-0.240;2023-06-22T01:19:46;21.70;99.90
22838;DHT22;11585;51.450;-0.240;2023-06-22T01:22:17;21.70;99.90
22838;DHT22;11585;51.450;-0.240;2023-06-22T01:30:16;21.60;99.90
22838;DHT22;11585;51.450;-0.240;2023-06-22T01:32:43;21.70;99.90
22838;DHT22;11585;51.450;-0.240;2023-06-22T01:35:10;21.60;99.90
22838;DHT22;11585;51.450;-0.240;2023-06-22T01:37:37;21.60;99.90
22838;DHT22;11585;51.450;-0.240;2023-06-22T01:40:04;21.60;99.90
22838;DHT22;11585;51.450;-0.240;2023-06-22T01:45:38;21.60;99.90
22838;DHT22;11585;51.450;-0.240;2023-06-22T01:48:06;21.50;99.90
22838;DHT22;11585;51.450;-0.240;2023-06-22T01:50:32;21.50;99.90
22838;DHT22;11585;51.450;-0.240;2023-06-22T01:56:05;21.50;99.90
22838;DHT22;11585;51.450;-0.240;2023-06-22T02:02:02;21.50;99.90
22838;DHT22;11585;51.450;-0.240;2023-06-22T02:04:48;21.40;99.90
22838;DHT22;11585;51.450;-0.240;2023-06-22T02:07:18;21.40;99.90
22838;DHT22;11585;51.450;-0.240;2023-06-22T02:09:46;21.40;99.90
22838;DHT22;11585;51.450;-0.240;2023-06-22T02:12:17;21.40;99.90
22838;DHT22;11585;51.450;-0.240;2023-06-22T02:14:44;21.30;99.90
22838;DHT22;11585;51.450;-0.240;2023-06-22T02:17:11;21.30;99.90
22838;DHT22;11585;51.450;-0.240;2023-06-22T02:19:38;21.30;99.90
22838;DHT22;11585;51.450;-0.240;2023-06-22T02:22:06;21.30;99.90
22838;DHT22;11585;51.450;-0.240;2023-06-22T02:24:32;21.20;99.90
22838;DHT22;11585;51.450;-0.240;2023-06-22T02:26:59;21.30;99.90
22838;DHT22;11585;51.450;-0.240;2023-06-22T02:29:25;21.20;99.90
22838;DHT22;11585;51.450;-0.240;2023-06-22T02:31:52;21.20;99.90
22838;DHT22;11585;51.450;-0.240;2023-06-22T02:34:18;21.20;99.90
22838;DHT22;11585;51.450;-0.240;2023-06-22T02:36:48;21.20;99.90
22838;DHT22;11585;51.450;-0.240;2023-06-22T02:39:21;21.20;99.90
22838;DHT22;11585;51.450;-0.240;2023-06-22T02:41:48;21.20;99.90
22838;DHT22;11585;51.450;-0.240;2023-06-22T02:44:14;21.20;99.90
22838;DHT22;11585;51.450;-0.240;2023-06-22T02:46:40;21.20;99.90
22838;DHT22;11585;51.450;-0.240;2023-06-22T02:49:05;21.10;99.90
22838;DHT22;11585;51.450;-0.240;2023-06-22T02:51:33;21.10;99.90
22838;DHT22;11585;51.450;-0.240;2023-06-22T02:54:01;21.10;99.90
22838;DHT22;11585;51.450;-0.240;2023-06-22T02:56:28;21.10;99.90
22838;DHT22;11585;51.450;-0.240;2023-06-22T02:58:55;21.10;99.90
22838;DHT22;11585;51.450;-0.240;2023-06-22T03:01:26;21.10;99.90
22838;DHT22;11585;51.450;-0.240;2023-06-22T03:03:58;21.00;99.90
22838;DHT22;11585;51.450;-0.240;2023-06-22T03:06:23;21.00;99.90
22838;DHT22;11585;51.450;-0.240;2023-06-22T03:08:59;21.00;99.90
22838;DHT22;11585;51.450;-0.240;2023-06-22T03:11:24;21.00;99.90
22838;DHT22;11585;51.450;-0.240;2023-06-22T03:17:12;21.00;99.90
22838;DHT22;11585;51.450;-0.240;2023-06-22T03:19:38;20.90;99.90
22838;DHT22;11585;51.450;-0.240;2023-06-22T03:22:07;20.90;99.90
22838;DHT22;11585;51.450;-0.240;2023-06-22T03:24:33;20.90;99.90
22838;DHT22;11585;51.450;-0.240;2023-06-22T03:26:59;20.90;99.90
22838;DHT22;11585;51.450;-0.240;2023-06-22T03:29:25;20.90;99.90
22838;DHT22;11585;51.450;-0.240;2023-06-22T03:31:52;20.90;99.90
22838;DHT22;11585;51.450;-0.240;2023-06-22T03:34:18;20.80;99.90
22838;DHT22;11585;51.450;-0.240;2023-06-22T03:36:44;20.80;99.90
22838;DHT22;11585;51.450;-0.240;2023-06-22T03:39:10;20.80;99.90
22838;DHT22;11585;51.450;-0.240;2023-06-22T03:41:36;20.80;99.90
22838;DHT22;11585;51.450;-0.240;2023-06-22T03:47:23;20.80;99.90
22838;DHT22;11585;51.450;-0.240;2023-06-22T03:49:49;20.80;99.90
22838;DHT22;11585;51.450;-0.240;2023-06-22T03:58:58;20.70;99.90
22838;DHT22;11585;51.450;-0.240;2023-06-22T04:01:24;20.70;99.90
22838;DHT22;11585;51.450;-0.240;2023-06-22T04:03:54;20.70;99.90
22838;DHT22;11585;51.450;-0.240;2023-06-22T04:06:20;20.60;99.90
22838;DHT22;11585;51.450;-0.240;2023-06-22T04:08:46;20.70;99.90
22838;DHT22;11585;51.450;-0.240;2023-06-22T04:11:17;20.60;99.90
22838;DHT22;11585;51.450;-0.240;2023-06-22T04:13:43;20.60;99.90
22838;DHT22;11585;51.450;-0.240;2023-06-22T04:16:09;20.60;99.90
22838;DHT22;11585;51.450;-0.240;2023-06-22T04:18:35;20.60;99.90
22838;DHT22;11585;51.450;-0.240;2023-06-22T04:21:02;20.60;99.90
22838;DHT22;11585;51.450;-0.240;2023-06-22T04:23:46;20.60;99.90
22838;DHT22;11585;51.450;-0.240;2023-06-22T04:26:13;20.50;99.90
22838;DHT22;11585;51.450;-0.240;2023-06-22T04:28:40;20.50;99.90
22838;DHT22;11585;51.450;-0.240;2023-06-22T04:31:05;20.50;99.90
22838;DHT22;11585;51.450;-0.240;2023-06-22T04:36:53;20.50;99.90
22838;DHT22;11585;51.450;-0.240;2023-06-22T04:39:19;20.40;99.90
22838;DHT22;11585;51.450;-0.240;2023-06-22T04:41:44;20.40;99.90
22838;DHT22;11585;51.450;-0.240;2023-06-22T04:44:16;20.40;99.90
22838;DHT22;11585;51.450;-0.240;2023-06-22T04:46:54;20.40;99.90
22838;DHT22;11585;51.450;-0.240;2023-06-22T04:49:21;20.40;99.90
22838;DHT22;11585;51.450;-0.240;2023-06-22T04:51:47;20.40;99.90
22838;DHT22;11585;51.450;-0.240;2023-06-22T04:54:13;20.40;99.90
22838;DHT22;11585;51.450;-0.240;2023-06-22T04:56:38;20.40;99.90
22838;DHT22;11585;51.450;-0.240;2023-06-22T04:59:06;20.40;99.90
22838;DHT22;11585;51.450;-0.240;2023-06-22T05:01:32;20.40;99.90
22838;DHT22;11585;51.450;-0.240;2023-06-22T05:03:58;20.40;99.90
22838;DHT22;11585;51.450;-0.240;2023-06-22T05:06:27;20.40;99.90
22838;DHT22;11585;51.450;-0.240;2023-06-22T05:08:56;20.40;99.90
22838;DHT22;11585;51.450;-0.240;2023-06-22T05:11:26;20.40;99.90
22838;DHT22;11585;51.450;-0.240;2023-06-22T05:17:13;20.40;99.90
22838;DHT22;11585;51.450;-0.240;2023-06-22T05:19:41;20.40;99.90
22838;DHT22;11585;51.450;-0.240;2023-06-22T05:22:11;20.40;99.90
22838;DHT22;11585;51.450;-0.240;2023-06-22T05:24:37;20.30;99.90
22838;DHT22;11585;51.450;-0.240;2023-06-22T05:27:03;20.40;99.90
22838;DHT22;11585;51.450;-0.240;2023-06-22T05:29:29;20.30;99.90
22838;DHT22;11585;51.450;-0.240;2023-06-22T05:32:13;20.40;99.90
22838;DHT22;11585;51.450;-0.240;2023-06-22T05:34:39;20.30;99.90
22838;DHT22;11585;51.450;-0.240;2023-06-22T05:37:05;20.30;99.90
22838;DHT22;11585;51.450;-0.240;2023-06-22T05:39:31;20.30;99.90
22838;DHT22;11585;51.450;-0.240;2023-06-22T05:45:19;20.30;99.90
22838;DHT22;11585;51.450;-0.240;2023-06-22T05:47:45;20.30;99.90
22838;DHT22;11585;51.450;-0.240;2023-06-22T05:50:10;20.20;99.90
22838;DHT22;11585;51.450;-0.240;2023-06-22T05:52:38;20.30;99.90
22838;DHT22;11585;51.450;-0.240;2023-06-22T05:55:04;20.20;99.90
22838;DHT22;11585;51.450;-0.240;2023-06-22T05:57:29;20.20;99.90
22838;DHT22;11585;51.450;-0.240;2023-06-22T05:59:55;20.20;99.90
22838;DHT22;11585;51.450;-0.240;2023-06-22T06:09:05;20.20;99.90
22838;DHT22;11585;51.450;-0.240;2023-06-22T06:11:30;20.10;99.90
22838;DHT22;11585;51.450;-0.240;2023-06-22T06:14:15;20.20;99.90
22838;DHT22;11585;51.450;-0.240;2023-06-22T06:16:42;20.20;99.90
22838;DHT22;11585;51.450;-0.240;2023-06-22T06:19:08;20.20;99.90
22838;DHT22;11585;51.450;-0.240;2023-06-22T06:21:33;20.10;99.90
22838;DHT22;11585;51.450;-0.240;2023-06-22T06:24:18;20.10;99.90
22838;DHT22;11585;51.450;-0.240;2023-06-22T06:26:43;20.10;99.90
22838;DHT22;11585;51.450;-0.240;2023-06-22T06:29:09;20.10;99.90
22838;DHT22;11585;51.450;-0.240;2023-06-22T06:31:34;20.20;99.90
22838;DHT22;11585;51.450;-0.240;2023-06-22T06:34:01;20.10;99.90
22838;DHT22;11585;51.450;-0.240;2023-06-22T06:36:27;20.10;99.90
22838;DHT22;11585;51.450;-0.240;2023-06-22T06:38:53;20.20;99.90
22838;DHT22;11585;51.450;-0.240;2023-06-22T06:41:19;20.20;99.90
22838;DHT22;11585;51.450;-0.240;2023-06-22T06:43:47;20.20;99.90
22838;DHT22;11585;51.450;-0.240;2023-06-22T06:46:12;20.20;99.90
22838;DHT22;11585;51.450;-0.240;2023-06-22T06:48:38;20.20;99.90
22838;DHT22;11585;51.450;-0.240;2023-06-22T06:51:05;20.20;99.90
22838;DHT22;11585;51.450;-0.240;2023-06-22T06:53:31;20.30;99.90
22838;DHT22;11585;51.450;-0.240;2023-06-22T06:55:57;20.30;99.90
22838;DHT22;11585;51.450;-0.240;2023-06-22T06:58:23;20.30;99.90
22838;DHT22;11585;51.450;-0.240;2023-06-22T07:00:49;20.30;99.90
22838;DHT22;11585;51.450;-0.240;2023-06-22T07:03:15;20.30;99.90
22838;DHT22;11585;51.450;-0.240;2023-06-22T07:05:41;20.40;99.90
22838;DHT22;11585;51.450;-0.240;2023-06-22T07:08:07;20.40;99.90
22838;DHT22;11585;51.450;-0.240;2023-06-22T07:10:33;20.40;99.90
22838;DHT22;11585;51.450;-0.240;2023-06-22T07:12:58;20.40;99.90
22838;DHT22;11585;51.450;-0.240;2023-06-22T07:15:24;20.50;99.90
22838;DHT22;11585;51.450;-0.240;2023-06-22T07:17:50;20.50;99.90
22838;DHT22;11585;51.450;-0.240;2023-06-22T07:20:16;20.50;99.90
22838;DHT22;11585;51.450;-0.240;2023-06-22T07:23:00;20.50;99.90
22838;DHT22;11585;51.450;-0.240;2023-06-22T07:25:26;20.60;99.90
22838;DHT22;11585;51.450;-0.240;2023-06-22T07:28:06;20.60;99.90
22838;DHT22;11585;51.450;-0.240;2023-06-22T07:30:33;20.60;99.90
22838;DHT22;11585;51.450;-0.240;2023-06-22T07:33:18;20.60;99.90
22838;DHT22;11585;51.450;-0.240;2023-06-22T07:35:45;20.60;99.90
22838;DHT22;11585;51.450;-0.240;2023-06-22T07:38:12;20.70;99.90
22838;DHT22;11585;51.450;-0.240;2023-06-22T07:40:38;20.70;99.90
22838;DHT22;11585;51.450;-0.240;2023-06-22T07:43:05;20.80;99.90
22838;DHT22;11585;51.450;-0.240;2023-06-22T07:45:31;20.80;99.90
22838;DHT22;11585;51.450;-0.240;2023-06-22T07:48:00;20.80;99.90
22838;DHT22;11585;51.450;-0.240;2023-06-22T07:50:26;20.90;99.90
22838;DHT22;11585;51.450;-0.240;2023-06-22T07:52:53;20.90;99.90
22838;DHT22;11585;51.450;-0.240;2023-06-22T07:55:18;21.00;99.90
22838;DHT22;11585;51.450;-0.240;2023-06-22T07:57:46;21.00;99.90
22838;DHT22;11585;51.450;-0.240;2023-06-22T08:00:12;21.00;99.90
22838;DHT22;11585;51.450;-0.240;2023-06-22T08:02:44;21.10;99.90
22838;DHT22;11585;51.450;-0.240;2023-06-22T08:05:10;21.10;99.90
22838;DHT22;11585;51.450;-0.240;2023-06-22T08:07:37;21.20;99.90
22838;DHT22;11585;51.450;-0.240;2023-06-22T08:10:04;21.20;99.90
22838;DHT22;11585;51.450;-0.240;2023-06-22T08:12:30;21.20;99.90
22838;DHT22;11585;51.450;-0.240;2023-06-22T08:14:56;21.30;99.90
22838;DHT22;11585;51.450;-0.240;2023-06-22T08:17:23;21.30;99.90
22838;DHT22;11585;51.450;-0.240;2023-06-22T08:19:49;21.40;99.90
22838;DHT22;11585;51.450;-0.240;2023-06-22T08:25:19;21.50;99.90
22838;DHT22;11585;51.450;-0.240;2023-06-22T08:27:45;21.50;99.90
22838;DHT22;11585;51.450;-0.240;2023-06-22T08:30:12;21.50;99.90
22838;DHT22;11585;51.450;-0.240;2023-06-22T08:32:38;21.60;99.90
22838;DHT22;11585;51.450;-0.240;2023-06-22T08:35:04;21.60;99.90
22838;DHT22;11585;51.450;-0.240;2023-06-22T08:37:31;21.70;99.90
22838;DHT22;11585;51.450;-0.240;2023-06-22T08:39:58;21.70;99.90
22838;DHT22;11585;51.450;-0.240;2023-06-22T08:42:25;21.70;99.90
22838;DHT22;11585;51.450;-0.240;2023-06-22T08:44:51;21.80;99.90
22838;DHT22;11585;51.450;-0.240;2023-06-22T08:47:17;21.80;99.90
22838;DHT22;11585;51.450;-0.240;2023-06-22T08:49:42;21.90;99.90
22838;DHT22;11585;51.450;-0.240;2023-06-22T08:52:08;21.90;99.90
22838;DHT22;11585;51.450;-0.240;2023-06-22T08:54:33;21.90;99.90
22838;DHT22;11585;51.450;-0.240;2023-06-22T08:57:01;21.90;99.90
22838;DHT22;11585;51.450;-0.240;2023-06-22T08:59:27;22.00;99.90
22838;DHT22;11585;51.450;-0.240;2023-06-22T09:01:52;22.00;99.90
22838;DHT22;11585;51.450;-0.240;2023-06-22T09:04:18;22.10;99.90
22838;DHT22;11585;51.450;-0.240;2023-06-22T09:06:44;22.10;99.90
22838;DHT22;11585;51.450;-0.240;2023-06-22T09:09:13;22.10;99.90
22838;DHT22;11585;51.450;-0.240;2023-06-22T09:11:39;22.20;99.90
22838;DHT22;11585;51.450;-0.240;2023-06-22T09:14:05;22.20;99.90
22838;DHT22;11585;51.450;-0.240;2023-06-22T09:16:31;22.20;99.90
22838;DHT22;11585;51.450;-0.240;2023-06-22T09:18:56;22.30;99.90
22838;DHT22;11585;51.450;-0.240;2023-06-22T09:21:22;22.30;99.90
22838;DHT22;11585;51.450;-0.240;2023-06-22T09:26:51;22.40;99.90
22838;DHT22;11585;51.450;-0.240;2023-06-22T09:29:17;22.40;99.90
22838;DHT22;11585;51.450;-0.240;2023-06-22T09:31:42;22.50;99.90
22838;DHT22;11585;51.450;-0.240;2023-06-22T09:34:10;22.50;99.90
22838;DHT22;11585;51.450;-0.240;2023-06-22T09:36:36;22.50;99.90
22838;DHT22;11585;51.450;-0.240;2023-06-22T09:39:02;22.60;99.90
22838;DHT22;11585;51.450;-0.240;2023-06-22T09:41:31;22.60;99.90
22838;DHT22;11585;51.450;-0.240;2023-06-22T09:43:57;22.70;99.90
22838;DHT22;11585;51.450;-0.240;2023-06-22T09:46:23;22.70;99.90
22838;DHT22;11585;51.450;-0.240;2023-06-22T09:48:50;22.80;99.90
22838;DHT22;11585;51.450;-0.240;2023-06-22T09:51:16;22.80;99.90
22838;DHT22;11585;51.450;-0.240;2023-06-22T09:53:42;22.90;99.90
22838;DHT22;11585;51.450;-0.240;2023-06-22T09:56:09;22.90;99.90
22838;DHT22;11585;51.450;-0.240;2023-06-22T09:58:40;22.90;99.90
22838;DHT22;11585;51.450;-0.240;2023-06-22T10:01:06;22.90;99.90
22838;DHT22;11585;51.450;-0.240;2023-06-22T10:03:53;23.00;99.90
22838;DHT22;11585;51.450;-0.240;2023-06-22T10:06:22;23.00;99.90
22838;DHT22;11585;51.450;-0.240;2023-06-22T10:08:47;23.10;99.90
22838;DHT22;11585;51.450;-0.240;2023-06-22T10:11:16;23.10;99.90
22838;DHT22;11585;51.450;-0.240;2023-06-22T10:13:41;23.10;99.90
22838;DHT22;11585;51.450;-0.240;2023-06-22T10:16:07;23.20;99.90
22838;DHT22;11585;51.450;-0.240;2023-06-22T10:18:33;23.20;99.90
22838;DHT22;11585;51.450;-0.240;2023-06-22T10:20:59;23.30;99.90
22838;DHT22;11585;51.450;-0.240;2023-06-22T10:23:27;23.30;99.90
22838;DHT22;11585;51.450;-0.240;2023-06-22T10:25:52;23.30;99.90
22838;DHT22;11585;51.450;-0.240;2023-06-22T10:28:18;23.30;99.90
22838;DHT22;11585;51.450;-0.240;2023-06-22T10:30:44;23.40;99.90
22838;DHT22;11585;51.450;-0.240;2023-06-22T10:33:10;23.40;99.90
22838;DHT22;11585;51.450;-0.240;2023-06-22T10:35:36;23.40;99.90
22838;DHT22;11585;51.450;-0.240;2023-06-22T10:38:05;23.50;99.90
22838;DHT22;11585;51.450;-0.240;2023-06-22T10:40:31;23.60;99.90
22838;DHT22;11585;51.450;-0.240;2023-06-22T10:42:58;23.60;99.90
22838;DHT22;11585;51.450;-0.240;2023-06-22T10:45:23;23.60;99.90
22838;DHT22;11585;51.450;-0.240;2023-06-22T10:47:49;23.70;99.90
22838;DHT22;11585;51.450;-0.240;2023-06-22T10:50:15;23.70;99.90
22838;DHT22;11585;51.450;-0.240;2023-06-22T10:52:43;23.70;99.90
22838;DHT22;11585;51.450;-0.240;2023-06-22T10:55:09;23.70;99.90
22838;DHT22;11585;51.450;-0.240;2023-06-22T10:57:35;23.70;99.90
22838;DHT22;11585;51.450;-0.240;2023-06-22T11:00:02;23.80;99.90
22838;DHT22;11585;51.450;-0.240;2023-06-22T11:02:31;23.80;99.90
22838;DHT22;11585;51.450;-0.240;2023-06-22T11:04:56;23.80;99.90
22838;DHT22;11585;51.450;-0.240;2023-06-22T11:07:26;23.80;99.90
22838;DHT22;11585;51.450;-0.240;2023-06-22T11:09:54;23.80;99.90
22838;DHT22;11585;51.450;-0.240;2023-06-22T11:12:19;23.90;99.90
22838;DHT22;11585;51.450;-0.240;2023-06-22T11:14:45;23.90;99.90
22838;DHT22;11585;51.450;-0.240;2023-06-22T11:17:11;23.90;99.90
22838;DHT22;11585;51.450;-0.240;2023-06-22T11:19:36;24.00;99.90
22838;DHT22;11585;51.450;-0.240;2023-06-22T11:22:04;24.00;99.90
22838;DHT22;11585;51.450;-0.240;2023-06-22T11:24:30;24.00;99.90
22838;DHT22;11585;51.450;-0.240;2023-06-22T11:26:55;24.00;99.90
22838;DHT22;11585;51.450;-0.240;2023-06-22T11:29:21;24.10;99.90
22838;DHT22;11585;51.450;-0.240;2023-06-22T11:31:46;24.10;99.90
22838;DHT22;11585;51.450;-0.240;2023-06-22T11:34:12;24.10;99.90
22838;DHT22;11585;51.450;-0.240;2023-06-22T11:36:38;24.20;99.90
22838;DHT22;11585;51.450;-0.240;2023-06-22T11:39:03;24.20;99.90
22838;DHT22;11585;51.450;-0.240;2023-06-22T11:41:30;24.20;99.90
22838;DHT22;11585;51.450;-0.240;2023-06-22T11:43:56;24.20;99.90
22838;DHT22;11585;51.450;-0.240;2023-06-22T11:46:21;24.30;99.90
22838;DHT22;11585;51.450;-0.240;2023-06-22T11:48:47;24.30;99.90
22838;DHT22;11585;51.450;-0.240;2023-06-22T11:51:12;24.30;99.90
22838;DHT22;11585;51.450;-0.240;2023-06-22T11:53:40;24.30;99.90
22838;DHT22;11585;51.450;-0.240;2023-06-22T11:56:06;24.40;99.90
22838;DHT22;11585;51.450;-0.240;2023-06-22T11:58:31;24.40;99.90
22838;DHT22;11585;51.450;-0.240;2023-06-22T12:00:57;24.40;99.90
22838;DHT22;11585;51.450;-0.240;2023-06-22T12:03:22;24.50;99.90
22838;DHT22;11585;51.450;-0.240;2023-06-22T12:05:49;24.50;99.90
22838;DHT22;11585;51.450;-0.240;2023-06-22T12:08:14;24.50;99.90
22838;DHT22;11585;51.450;-0.240;2023-06-22T12:10:40;24.50;99.90
22838;DHT22;11585;51.450;-0.240;2023-06-22T12:13:07;24.50;99.90
22838;DHT22;11585;51.450;-0.240;2023-06-22T12:15:32;24.60;99.90
22838;DHT22;11585;51.450;-0.240;2023-06-22T12:17:58;24.60;99.90
22838;DHT22;11585;51.450;-0.240;2023-06-22T12:20:24;24.60;99.90
22838;DHT22;11585;51.450;-0.240;2023-06-22T12:22:49;24.60;99.90
22838;DHT22;11585;51.450;-0.240;2023-06-22T12:25:17;24.70;99.90
22838;DHT22;11585;51.450;-0.240;2023-06-22T12:27:42;24.70;99.90
22838;DHT22;11585;51.450;-0.240;2023-06-22T12:30:08;24.80;99.90
22838;DHT22;11585;51.450;-0.240;2023-06-22T12:32:34;24.80;99.90
22838;DHT22;11585;51.450;-0.240;2023-06-22T12:35:00;24.80;99.90
22838;DHT22;11585;51.450;-0.240;2023-06-22T12:37:25;24.80;99.90
22838;DHT22;11585;51.450;-0.240;2023-06-22T12:39:51;24.90;99.90
22838;DHT22;11585;51.450;-0.240;2023-06-22T12:42:17;24.90;99.90
22838;DHT22;11585;51.450;-0.240;2023-06-22T12:44:42;24.90;99.90
22838;DHT22;11585;51.450;-0.240;2023-06-22T12:47:08;25.00;99.90
22838;DHT22;11585;51.450;-0.240;2023-06-22T12:49:35;25.00;99.90
22838;DHT22;11585;51.450;-0.240;2023-06-22T12:52:02;25.00;99.90
22838;DHT22;11585;51.450;-0.240;2023-06-22T12:54:28;25.00;99.90
22838;DHT22;11585;51.450;-0.240;2023-06-22T12:56:55;25.10;99.90
22838;DHT22;11585;51.450;-0.240;2023-06-22T12:59:21;25.10;99.90
22838;DHT22;11585;51.450;-0.240;2023-06-22T13:01:47;25.10;99.90
22838;DHT22;11585;51.450;-0.240;2023-06-22T13:04:12;25.20;99.90
22838;DHT22;11585;51.450;-0.240;2023-06-22T13:06:41;25.20;99.90
22838;DHT22;11585;51.450;-0.240;2023-06-22T13:09:06;25.20;99.90
22838;DHT22;11585;51.450;-0.240;2023-06-22T13:11:32;25.30;99.90
22838;DHT22;11585;51.450;-0.240;2023-06-22T13:14:00;25.30;99.90
22838;DHT22;11585;51.450;-0.240;2023-06-22T13:16:25;25.30;99.90
22838;DHT22;11585;51.450;-0.240;2023-06-22T13:18:51;25.40;99.90
22838;DHT22;11585;51.450;-0.240;2023-06-22T13:21:16;25.40;99.90
22838;DHT22;11585;51.450;-0.240;2023-06-22T13:23:42;25.40;99.90
22838;DHT22;11585;51.450;-0.240;2023-06-22T13:26:07;25.50;99.90
22838;DHT22;11585;51.450;-0.240;2023-06-22T13:28:33;25.50;99.90
22838;DHT22;11585;51.450;-0.240;2023-06-22T13:30:59;25.60;99.90
22838;DHT22;11585;51.450;-0.240;2023-06-22T13:33:43;25.60;99.90
22838;DHT22;11585;51.450;-0.240;2023-06-22T13:36:11;25.60;99.90
22838;DHT22;11585;51.450;-0.240;2023-06-22T13:38:37;25.60;99.90
22838;DHT22;11585;51.450;-0.240;2023-06-22T13:41:04;25.70;99.90
22838;DHT22;11585;51.450;-0.240;2023-06-22T13:43:49;25.70;99.90
22838;DHT22;11585;51.450;-0.240;2023-06-22T13:46:14;25.70;99.90
22838;DHT22;11585;51.450;-0.240;2023-06-22T13:48:40;25.70;99.90
22838;DHT22;11585;51.450;-0.240;2023-06-22T13:51:05;25.70;99.90
22838;DHT22;11585;51.450;-0.240;2023-06-22T13:53:31;25.70;99.90
22838;DHT22;11585;51.450;-0.240;2023-06-22T13:55:57;25.80;99.90
22838;DHT22;11585;51.450;-0.240;2023-06-22T13:58:23;25.80;99.90
22838;DHT22;11585;51.450;-0.240;2023-06-22T14:00:48;25.80;99.90
22838;DHT22;11585;51.450;-0.240;2023-06-22T14:03:14;25.80;99.90
22838;DHT22;11585;51.450;-0.240;2023-06-22T14:05:42;25.80;99.90
22838;DHT22;11585;51.450;-0.240;2023-06-22T14:08:08;25.90;99.90
22838;DHT22;11585;51.450;-0.240;2023-06-22T14:10:34;25.90;99.90
22838;DHT22;11585;51.450;-0.240;2023-06-22T14:13:18;25.90;99.90
22838;DHT22;11585;51.450;-0.240;2023-06-22T14:15:44;26.00;99.90
22838;DHT22;11585;51.450;-0.240;2023-06-22T14:18:10;26.00;99.90
22838;DHT22;11585;51.450;-0.240;2023-06-22T14:20:35;26.00;99.90
22838;DHT22;11585;51.450;-0.240;2023-06-22T14:23:02;26.10;99.90
22838;DHT22;11585;51.450;-0.240;2023-06-22T14:25:28;26.10;99.90
22838;DHT22;11585;51.450;-0.240;2023-06-22T14:27:53;26.10;99.90
22838;DHT22;11585;51.450;-0.240;2023-06-22T14:30:19;26.10;99.90
22838;DHT22;11585;51.450;-0.240;2023-06-22T14:32:45;26.20;99.90
22838;DHT22;11585;51.450;-0.240;2023-06-22T14:35:10;26.20;99.90
22838;DHT22;11585;51.450;-0.240;2023-06-22T14:37:36;26.20;99.90
22838;DHT22;11585;51.450;-0.240;2023-06-22T14:40:02;26.20;99.90
22838;DHT22;11585;51.450;-0.240;2023-06-22T14:42:31;26.20;99.90
22838;DHT22;11585;51.450;-0.240;2023-06-22T14:44:57;26.20;99.90
22838;DHT22;11585;51.450;-0.240;2023-06-22T14:47:22;26.20;99.90
22838;DHT22;11585;51.450;-0.240;2023-06-22T14:49:48;26.20;99.90
22838;DHT22;11585;51.450;-0.240;2023-06-22T14:52:14;26.20;99.90
22838;DHT22;11585;51.450;-0.240;2023-06-22T14:54:39;26.20;99.90
22838;DHT22;11585;51.450;-0.240;2023-06-22T14:57:05;26.20;99.90
22838;DHT22;11585;51.450;-0.240;2023-06-22T14:59:31;26.20;99.90
22838;DHT22;11585;51.450;-0.240;2023-06-22T15:01:57;26.20;99.90
22838;DHT22;11585;51.450;-0.240;2023-06-22T15:04:23;26.20;99.90
22838;DHT22;11585;51.450;-0.240;2023-06-22T15:06:48;26.20;99.90
22838;DHT22;11585;51.450;-0.240;2023-06-22T15:09:14;26.20;99.90
22838;DHT22;11585;51.450;-0.240;2023-06-22T15:11:40;26.20;99.90
22838;DHT22;11585;51.450;-0.240;2023-06-22T15:14:07;26.20;99.90
22838;DHT22;11585;51.450;-0.240;2023-06-22T15:16:33;26.20;99.90
22838;DHT22;11585;51.450;-0.240;2023-06-22T15:18:58;26.20;99.90
22838;DHT22;11585;51.450;-0.240;2023-06-22T15:21:24;26.20;99.90
22838;DHT22;11585;51.450;-0.240;2023-06-22T15:23:50;26.30;99.90
22838;DHT22;11585;51.450;-0.240;2023-06-22T15:26:16;26.20;99.90
22838;DHT22;11585;51.450;-0.240;2023-06-22T15:28:42;26.30;99.90
22838;DHT22;11585;51.450;-0.240;2023-06-22T15:31:08;26.30;99.90
22838;DHT22;11585;51.450;-0.240;2023-06-22T15:33:39;26.30;99.90
22838;DHT22;11585;51.450;-0.240;2023-06-22T15:36:05;26.30;99.90
22838;DHT22;11585;51.450;-0.240;2023-06-22T15:38:32;26.40;99.90
22838;DHT22;11585;51.450;-0.240;2023-06-22T15:40:58;26.40;99.90
22838;DHT22;11585;51.450;-0.240;2023-06-22T15:43:25;26.40;99.90
22838;DHT22;11585;51.450;-0.240;2023-06-22T15:45:50;26.40;99.90
22838;DHT22;11585;51.450;-0.240;2023-06-22T15:48:19;26.50;99.90
22838;DHT22;11585;51.450;-0.240;2023-06-22T15:50:44;26.50;99.90
22838;DHT22;11585;51.450;-0.240;2023-06-22T15:53:10;26.50;99.90
22838;DHT22;11585;51.450;-0.240;2023-06-22T15:55:35;26.50;99.90
22838;DHT22;11585;51.450;-0.240;2023-06-22T15:58:01;26.60;99.90
22838;DHT22;11585;51.450;-0.240;2023-06-22T16:00:27;26.60;99.90
22838;DHT22;11585;51.450;-0.240;2023-06-22T16:02:53;26.60;99.90
22838;DHT22;11585;51.450;-0.240;2023-06-22T16:05:19;26.70;99.90
22838;DHT22;11585;51.450;-0.240;2023-06-22T16:07:45;26.70;99.90